sensor_id;sensor_type;location;lat;lon;timestamp;P1;durP1;ratioP1;P2;durP2;ratioP2
12114;SDS011;6121;49.810;6.418;2023-07-16T00:01:31;19.55;;;9.57;;
12114;SDS011;6121;49.810;6.418;2023-07-16T00:03:57;18.77;;;9.10;;
12114;SDS011;6121;49.810;6.418;2023-07-16T00:06:23;16.48;;;8.35;;
12114;SDS011;6121;49.810;6.418;2023-07-16T00:08:49;19.67;;;9.65;;
12114;SDS011;6121;49.810;6.418;2023-07-16T00:11:15;16.65;;;8.32;;
12114;SDS011;6121;49.810;6.418;2023-07-16T00:13:40;16.37;;;8.40;;
12114;SDS011;6121;49.810;6.418;2023-07-16T00:16:11;14.52;;;7.60;;
12114;SDS011;6121;49.810;6.418;2023-07-16T00:18:38;20.75;;;10.05;;
12114;SDS011;6121;49.810;6.418;2023-07-16T00:21:03;15.02;;;7.60;;
12114;SDS011;6121;49.810;6.418;2023-07-16T00:23:29;16.58;;;8.40;;
12114;SDS011;6121;49.810;6.418;2023-07-16T00:25:55;16.30;;;8.13;;
12114;SDS011;6121;49.810;6.418;2023-07-16T00:28:21;18.90;;;9.03;;
12114;SDS011;6121;49.810;6.418;2023-07-16T00:30:47;23.55;;;11.82;;
12114;SDS011;6121;49.810;6.418;2023-07-16T00:33:13;17.55;;;8.57;;
12114;SDS011;6121;49.810;6.418;2023-07-16T00:35:39;19.30;;;9.07;;
12114;SDS011;6121;49.810;6.418;2023-07-16T00:38:11;16.67;;;8.25;;
12114;SDS011;6121;49.810;6.418;2023-07-16T00:40:37;19.13;;;9.25;;
12114;SDS011;6121;49.810;6.418;2023-07-16T00:43:02;16.30;;;7.87;;
12114;SDS011;6121;49.810;6.418;2023-07-16T00:45:28;18.80;;;9.13;;
12114;SDS011;6121;49.810;6.418;2023-07-16T00:47:54;17.98;;;9.02;;
12114;SDS011;6121;49.810;6.418;2023-07-16T00:50:20;17.40;;;8.50;;
12114;SDS011;6121;49.810;6.418;2023-07-16T00:52:46;14.95;;;7.45;;
12114;SDS011;6121;49.810;6.418;2023-07-16T00:55:12;16.30;;;8.13;;
12114;SDS011;6121;49.810;6.418;2023-07-16T00:57:38;18.75;;;9.05;;
12114;SDS011;6121;49.810;6.418;2023-07-16T01:00:05;18.33;;;8.87;;
12114;SDS011;6121;49.810;6.418;2023-07-16T01:02:31;17.73;;;8.70;;
12114;SDS011;6121;49.810;6.418;2023-07-16T01:04:57;26.88;;;12.75;;
12114;SDS011;6121;49.810;6.418;2023-07-16T01:07:24;16.42;;;8.00;;
12114;SDS011;6121;49.810;6.418;2023-07-16T01:09:53;18.27;;;8.83;;
12114;SDS011;6121;49.810;6.418;2023-07-16T01:12:21;17.95;;;8.65;;
12114;SDS011;6121;49.810;6.418;2023-07-16T01:14:47;19.05;;;9.55;;
12114;SDS011;6121;49.810;6.418;2023-07-16T01:17:15;17.63;;;8.35;;
12114;SDS011;6121;49.810;6.418;2023-07-16T01:19:41;19.15;;;9.27;;
12114;SDS011;6121;49.810;6.418;2023-07-16T01:30:28;17.10;;;8.40;;
12114;SDS011;6121;49.810;6.418;2023-07-16T01:32:56;18.52;;;9.13;;
12114;SDS011;6121;49.810;6.418;2023-07-16T01:35:23;18.50;;;8.82;;
12114;SDS011;6121;49.810;6.418;2023-07-16T01:37:49;19.70;;;9.30;;
12114;SDS011;6121;49.810;6.418;2023-07-16T01:40:15;18.67;;;8.98;;
12114;SDS011;6121;49.810;6.418;2023-07-16T01:42:41;18.40;;;9.23;;
12114;SDS011;6121;49.810;6.418;2023-07-16T01:45:08;17.52;;;8.48;;
12114;SDS011;6121;49.810;6.418;2023-07-16T01:47:59;16.88;;;8.20;;
12114;SDS011;6121;49.810;6.418;2023-07-16T01:50:28;22.98;;;11.38;;
12114;SDS011;6121;49.810;6.418;2023-07-16T01:52:54;15.50;;;7.65;;
12114;SDS011;6121;49.810;6.418;2023-07-16T01:55:20;16.60;;;7.97;;
12114;SDS011;6121;49.810;6.418;2023-07-16T01:57:46;16.03;;;7.90;;
12114;SDS011;6121;49.810;6.418;2023-07-16T02:00:11;18.63;;;8.93;;
12114;SDS011;6121;49.810;6.418;2023-07-16T02:02:49;16.20;;;8.05;;
12114;SDS011;6121;49.810;6.418;2023-07-16T02:05:15;16.15;;;7.80;;
12114;SDS011;6121;49.810;6.418;2023-07-16T02:07:41;17.60;;;8.60;;
12114;SDS011;6121;49.810;6.418;2023-07-16T02:10:07;16.67;;;8.13;;
12114;SDS011;6121;49.810;6.418;2023-07-16T02:12:33;15.52;;;7.75;;
12114;SDS011;6121;49.810;6.418;2023-07-16T02:14:59;19.48;;;9.32;;
12114;SDS011;6121;49.810;6.418;2023-07-16T02:17:25;17.13;;;8.17;;
12114;SDS011;6121;49.810;6.418;2023-07-16T02:19:50;21.95;;;10.18;;
12114;SDS011;6121;49.810;6.418;2023-07-16T02:22:16;16.88;;;8.25;;
12114;SDS011;6121;49.810;6.418;2023-07-16T02:24:42;26.08;;;12.43;;
12114;SDS011;6121;49.810;6.418;2023-07-16T02:27:08;18.80;;;8.97;;
12114;SDS011;6121;49.810;6.418;2023-07-16T02:29:34;17.65;;;8.52;;
12114;SDS011;6121;49.810;6.418;2023-07-16T02:31:59;21.05;;;10.10;;
12114;SDS011;6121;49.810;6.418;2023-07-16T02:34:25;19.10;;;9.13;;
12114;SDS011;6121;49.810;6.418;2023-07-16T02:36:51;19.07;;;9.13;;
12114;SDS011;6121;49.810;6.418;2023-07-16T02:39:17;17.27;;;8.33;;
12114;SDS011;6121;49.810;6.418;2023-07-16T02:41:42;20.45;;;9.70;;
12114;SDS011;6121;49.810;6.418;2023-07-16T02:44:08;21.45;;;10.13;;
12114;SDS011;6121;49.810;6.418;2023-07-16T02:46:34;18.35;;;8.77;;
12114;SDS011;6121;49.810;6.418;2023-07-16T02:49:00;22.07;;;10.47;;
12114;SDS011;6121;49.810;6.418;2023-07-16T02:51:29;18.38;;;8.80;;
12114;SDS011;6121;49.810;6.418;2023-07-16T02:53:54;21.38;;;10.07;;
12114;SDS011;6121;49.810;6.418;2023-07-16T02:56:20;16.77;;;8.18;;
12114;SDS011;6121;49.810;6.418;2023-07-16T02:58:46;21.55;;;10.05;;
12114;SDS011;6121;49.810;6.418;2023-07-16T03:01:14;18.73;;;9.00;;
12114;SDS011;6121;49.810;6.418;2023-07-16T03:03:40;20.77;;;9.93;;
12114;SDS011;6121;49.810;6.418;2023-07-16T03:06:06;19.67;;;9.23;;
12114;SDS011;6121;49.810;6.418;2023-07-16T03:08:33;19.05;;;8.98;;
12114;SDS011;6121;49.810;6.418;2023-07-16T03:10:59;24.30;;;11.33;;
12114;SDS011;6121;49.810;6.418;2023-07-16T03:13:26;17.48;;;8.45;;
12114;SDS011;6121;49.810;6.418;2023-07-16T03:15:51;18.10;;;8.93;;
12114;SDS011;6121;49.810;6.418;2023-07-16T03:18:18;19.35;;;9.30;;
12114;SDS011;6121;49.810;6.418;2023-07-16T03:20:44;20.07;;;9.60;;
12114;SDS011;6121;49.810;6.418;2023-07-16T03:23:10;20.33;;;10.00;;
12114;SDS011;6121;49.810;6.418;2023-07-16T03:25:35;16.60;;;7.90;;
12114;SDS011;6121;49.810;6.418;2023-07-16T03:28:02;18.35;;;8.93;;
12114;SDS011;6121;49.810;6.418;2023-07-16T03:30:30;17.27;;;8.50;;
12114;SDS011;6121;49.810;6.418;2023-07-16T03:32:56;17.17;;;8.40;;
12114;SDS011;6121;49.810;6.418;2023-07-16T03:35:24;17.10;;;8.40;;
12114;SDS011;6121;49.810;6.418;2023-07-16T03:37:50;18.50;;;8.85;;
12114;SDS011;6121;49.810;6.418;2023-07-16T03:40:17;17.90;;;8.48;;
12114;SDS011;6121;49.810;6.418;2023-07-16T03:42:46;17.57;;;8.43;;
12114;SDS011;6121;49.810;6.418;2023-07-16T03:45:11;18.40;;;9.00;;
12114;SDS011;6121;49.810;6.418;2023-07-16T03:47:37;16.15;;;7.90;;
12114;SDS011;6121;49.810;6.418;2023-07-16T03:50:03;19.65;;;9.57;;
12114;SDS011;6121;49.810;6.418;2023-07-16T03:52:29;17.13;;;8.40;;
12114;SDS011;6121;49.810;6.418;2023-07-16T03:54:55;18.65;;;9.15;;
12114;SDS011;6121;49.810;6.418;2023-07-16T03:57:21;21.52;;;10.30;;
12114;SDS011;6121;49.810;6.418;2023-07-16T03:59:47;20.83;;;9.82;;
12114;SDS011;6121;49.810;6.418;2023-07-16T04:02:13;20.25;;;9.60;;
12114;SDS011;6121;49.810;6.418;2023-07-16T04:04:39;18.30;;;8.87;;
12114;SDS011;6121;49.810;6.418;2023-07-16T04:07:05;19.53;;;9.57;;
12114;SDS011;6121;49.810;6.418;2023-07-16T04:09:31;15.98;;;7.88;;
12114;SDS011;6121;49.810;6.418;2023-07-16T04:11:57;16.77;;;8.35;;
12114;SDS011;6121;49.810;6.418;2023-07-16T04:14:22;18.52;;;8.75;;
12114;SDS011;6121;49.810;6.418;2023-07-16T04:16:48;21.17;;;9.67;;
12114;SDS011;6121;49.810;6.418;2023-07-16T04:19:14;18.43;;;8.70;;
12114;SDS011;6121;49.810;6.418;2023-07-16T04:21:40;16.48;;;8.02;;
12114;SDS011;6121;49.810;6.418;2023-07-16T04:24:06;20.80;;;10.00;;
12114;SDS011;6121;49.810;6.418;2023-07-16T04:26:32;21.70;;;10.40;;
12114;SDS011;6121;49.810;6.418;2023-07-16T04:28:57;20.65;;;9.75;;
12114;SDS011;6121;49.810;6.418;2023-07-16T04:31:23;17.85;;;8.43;;
12114;SDS011;6121;49.810;6.418;2023-07-16T04:33:49;19.65;;;9.63;;
12114;SDS011;6121;49.810;6.418;2023-07-16T04:36:15;18.10;;;8.65;;
12114;SDS011;6121;49.810;6.418;2023-07-16T04:38:41;19.75;;;9.32;;
12114;SDS011;6121;49.810;6.418;2023-07-16T04:41:07;19.33;;;9.37;;
12114;SDS011;6121;49.810;6.418;2023-07-16T04:43:33;18.83;;;9.07;;
12114;SDS011;6121;49.810;6.418;2023-07-16T04:45:59;20.42;;;9.65;;
12114;SDS011;6121;49.810;6.418;2023-07-16T04:48:25;18.95;;;9.02;;
12114;SDS011;6121;49.810;6.418;2023-07-16T04:50:51;21.42;;;10.32;;
12114;SDS011;6121;49.810;6.418;2023-07-16T04:53:18;16.95;;;8.45;;
12114;SDS011;6121;49.810;6.418;2023-07-16T04:55:44;17.63;;;8.57;;
12114;SDS011;6121;49.810;6.418;2023-07-16T04:58:14;17.27;;;8.40;;
12114;SDS011;6121;49.810;6.418;2023-07-16T05:00:40;18.10;;;8.50;;
12114;SDS011;6121;49.810;6.418;2023-07-16T05:03:06;18.58;;;8.93;;
12114;SDS011;6121;49.810;6.418;2023-07-16T05:05:32;16.73;;;7.95;;
12114;SDS011;6121;49.810;6.418;2023-07-16T05:07:58;16.70;;;8.27;;
12114;SDS011;6121;49.810;6.418;2023-07-16T05:10:24;18.93;;;9.43;;
12114;SDS011;6121;49.810;6.418;2023-07-16T05:12:49;17.17;;;8.43;;
12114;SDS011;6121;49.810;6.418;2023-07-16T05:15:15;18.55;;;9.13;;
12114;SDS011;6121;49.810;6.418;2023-07-16T05:17:41;18.30;;;8.75;;
12114;SDS011;6121;49.810;6.418;2023-07-16T05:20:08;23.87;;;11.53;;
12114;SDS011;6121;49.810;6.418;2023-07-16T05:22:37;15.75;;;7.80;;
12114;SDS011;6121;49.810;6.418;2023-07-16T05:25:03;16.90;;;8.43;;
12114;SDS011;6121;49.810;6.418;2023-07-16T05:27:29;16.60;;;8.25;;
12114;SDS011;6121;49.810;6.418;2023-07-16T05:29:55;19.83;;;9.80;;
12114;SDS011;6121;49.810;6.418;2023-07-16T05:32:21;16.92;;;8.45;;
12114;SDS011;6121;49.810;6.418;2023-07-16T05:34:47;17.10;;;8.30;;
12114;SDS011;6121;49.810;6.418;2023-07-16T05:37:13;19.40;;;9.18;;
12114;SDS011;6121;49.810;6.418;2023-07-16T05:39:39;18.92;;;9.18;;
12114;SDS011;6121;49.810;6.418;2023-07-16T05:42:05;17.25;;;8.60;;
12114;SDS011;6121;49.810;6.418;2023-07-16T05:44:31;17.38;;;8.52;;
12114;SDS011;6121;49.810;6.418;2023-07-16T05:46:57;18.95;;;9.10;;
12114;SDS011;6121;49.810;6.418;2023-07-16T05:49:23;18.57;;;8.93;;
12114;SDS011;6121;49.810;6.418;2023-07-16T05:51:51;16.23;;;7.82;;
12114;SDS011;6121;49.810;6.418;2023-07-16T05:54:17;18.02;;;8.82;;
12114;SDS011;6121;49.810;6.418;2023-07-16T05:56:43;20.25;;;9.75;;
12114;SDS011;6121;49.810;6.418;2023-07-16T05:59:09;19.60;;;9.47;;
12114;SDS011;6121;49.810;6.418;2023-07-16T06:01:35;16.58;;;8.25;;
12114;SDS011;6121;49.810;6.418;2023-07-16T06:04:00;22.30;;;10.98;;
12114;SDS011;6121;49.810;6.418;2023-07-16T06:06:27;19.23;;;9.50;;
12114;SDS011;6121;49.810;6.418;2023-07-16T06:08:55;17.38;;;8.52;;
12114;SDS011;6121;49.810;6.418;2023-07-16T06:11:21;19.48;;;9.40;;
12114;SDS011;6121;49.810;6.418;2023-07-16T06:13:47;16.93;;;8.40;;
12114;SDS011;6121;49.810;6.418;2023-07-16T06:16:13;16.17;;;8.07;;
12114;SDS011;6121;49.810;6.418;2023-07-16T06:18:39;21.02;;;10.35;;
12114;SDS011;6121;49.810;6.418;2023-07-16T06:21:05;17.13;;;8.63;;
12114;SDS011;6121;49.810;6.418;2023-07-16T06:23:31;16.90;;;8.27;;
12114;SDS011;6121;49.810;6.418;2023-07-16T06:25:57;17.50;;;8.45;;
12114;SDS011;6121;49.810;6.418;2023-07-16T06:28:23;14.80;;;7.53;;
12114;SDS011;6121;49.810;6.418;2023-07-16T06:30:49;9.60;;;5.20;;
12114;SDS011;6121;49.810;6.418;2023-07-16T06:33:17;12.63;;;6.60;;
12114;SDS011;6121;49.810;6.418;2023-07-16T06:35:46;19.25;;;9.98;;
12114;SDS011;6121;49.810;6.418;2023-07-16T06:38:13;18.52;;;9.00;;
12114;SDS011;6121;49.810;6.418;2023-07-16T06:40:45;18.65;;;9.45;;
12114;SDS011;6121;49.810;6.418;2023-07-16T06:43:12;18.55;;;9.23;;
12114;SDS011;6121;49.810;6.418;2023-07-16T06:45:38;14.68;;;7.70;;
12114;SDS011;6121;49.810;6.418;2023-07-16T06:48:04;15.95;;;8.25;;
12114;SDS011;6121;49.810;6.418;2023-07-16T06:50:31;16.60;;;8.52;;
12114;SDS011;6121;49.810;6.418;2023-07-16T06:52:57;15.25;;;7.88;;
12114;SDS011;6121;49.810;6.418;2023-07-16T06:55:23;15.13;;;7.90;;
12114;SDS011;6121;49.810;6.418;2023-07-16T06:57:49;17.00;;;8.47;;
12114;SDS011;6121;49.810;6.418;2023-07-16T07:00:15;17.85;;;8.63;;
12114;SDS011;6121;49.810;6.418;2023-07-16T07:02:41;15.85;;;7.85;;
12114;SDS011;6121;49.810;6.418;2023-07-16T07:05:07;16.90;;;8.43;;
12114;SDS011;6121;49.810;6.418;2023-07-16T07:07:33;20.83;;;10.33;;
12114;SDS011;6121;49.810;6.418;2023-07-16T07:09:59;17.85;;;8.80;;
12114;SDS011;6121;49.810;6.418;2023-07-16T07:12:25;17.45;;;8.40;;
12114;SDS011;6121;49.810;6.418;2023-07-16T07:14:51;16.67;;;8.38;;
12114;SDS011;6121;49.810;6.418;2023-07-16T07:17:16;17.47;;;8.70;;
12114;SDS011;6121;49.810;6.418;2023-07-16T07:19:43;18.05;;;8.88;;
12114;SDS011;6121;49.810;6.418;2023-07-16T07:22:09;16.38;;;8.25;;
12114;SDS011;6121;49.810;6.418;2023-07-16T07:24:35;15.33;;;7.80;;
12114;SDS011;6121;49.810;6.418;2023-07-16T07:27:01;17.25;;;8.32;;
12114;SDS011;6121;49.810;6.418;2023-07-16T07:29:27;23.23;;;11.63;;
12114;SDS011;6121;49.810;6.418;2023-07-16T07:31:53;15.80;;;7.82;;
12114;SDS011;6121;49.810;6.418;2023-07-16T07:34:19;9.73;;;6.65;;
12114;SDS011;6121;49.810;6.418;2023-07-16T07:36:47;9.93;;;6.70;;
12114;SDS011;6121;49.810;6.418;2023-07-16T07:39:13;9.23;;;6.60;;
12114;SDS011;6121;49.810;6.418;2023-07-16T07:41:39;7.90;;;5.77;;
12114;SDS011;6121;49.810;6.418;2023-07-16T07:44:05;8.70;;;6.50;;
12114;SDS011;6121;49.810;6.418;2023-07-16T07:46:31;8.73;;;6.40;;
12114;SDS011;6121;49.810;6.418;2023-07-16T07:48:57;9.30;;;6.82;;
12114;SDS011;6121;49.810;6.418;2023-07-16T07:51:23;8.40;;;6.32;;
12114;SDS011;6121;49.810;6.418;2023-07-16T07:53:49;7.90;;;5.90;;
12114;SDS011;6121;49.810;6.418;2023-07-16T07:56:15;9.23;;;6.90;;
12114;SDS011;6121;49.810;6.418;2023-07-16T07:58:41;7.97;;;6.07;;
12114;SDS011;6121;49.810;6.418;2023-07-16T08:01:07;7.95;;;5.93;;
12114;SDS011;6121;49.810;6.418;2023-07-16T08:03:33;8.37;;;6.37;;
12114;SDS011;6121;49.810;6.418;2023-07-16T08:06:00;8.13;;;6.30;;
12114;SDS011;6121;49.810;6.418;2023-07-16T08:08:26;9.48;;;7.05;;
12114;SDS011;6121;49.810;6.418;2023-07-16T08:10:53;6.97;;;5.25;;
12114;SDS011;6121;49.810;6.418;2023-07-16T08:13:20;8.63;;;6.65;;
12114;SDS011;6121;49.810;6.418;2023-07-16T08:15:47;7.78;;;6.13;;
12114;SDS011;6121;49.810;6.418;2023-07-16T08:18:13;9.00;;;6.70;;
12114;SDS011;6121;49.810;6.418;2023-07-16T08:20:39;7.90;;;6.05;;
12114;SDS011;6121;49.810;6.418;2023-07-16T08:23:06;8.85;;;6.43;;
12114;SDS011;6121;49.810;6.418;2023-07-16T08:25:32;9.40;;;7.03;;
12114;SDS011;6121;49.810;6.418;2023-07-16T08:27:57;8.13;;;5.97;;
12114;SDS011;6121;49.810;6.418;2023-07-16T08:30:23;11.82;;;8.55;;
12114;SDS011;6121;49.810;6.418;2023-07-16T08:32:49;9.05;;;6.40;;
12114;SDS011;6121;49.810;6.418;2023-07-16T08:35:16;8.00;;;6.05;;
12114;SDS011;6121;49.810;6.418;2023-07-16T08:37:44;7.68;;;5.68;;
12114;SDS011;6121;49.810;6.418;2023-07-16T08:40:11;9.52;;;7.00;;
12114;SDS011;6121;49.810;6.418;2023-07-16T08:42:38;8.48;;;6.10;;
12114;SDS011;6121;49.810;6.418;2023-07-16T08:45:06;7.88;;;5.93;;
12114;SDS011;6121;49.810;6.418;2023-07-16T08:47:33;8.27;;;6.43;;
12114;SDS011;6121;49.810;6.418;2023-07-16T08:49:59;8.52;;;6.43;;
12114;SDS011;6121;49.810;6.418;2023-07-16T08:52:26;8.45;;;6.13;;
12114;SDS011;6121;49.810;6.418;2023-07-16T08:54:53;7.20;;;5.68;;
12114;SDS011;6121;49.810;6.418;2023-07-16T08:57:19;9.18;;;6.88;;
12114;SDS011;6121;49.810;6.418;2023-07-16T08:59:50;9.18;;;6.93;;
12114;SDS011;6121;49.810;6.418;2023-07-16T09:02:19;8.80;;;6.50;;
12114;SDS011;6121;49.810;6.418;2023-07-16T09:04:47;10.98;;;8.35;;
12114;SDS011;6121;49.810;6.418;2023-07-16T09:07:14;8.77;;;6.67;;
12114;SDS011;6121;49.810;6.418;2023-07-16T09:09:42;8.23;;;6.22;;
12114;SDS011;6121;49.810;6.418;2023-07-16T09:12:11;7.50;;;5.87;;
12114;SDS011;6121;49.810;6.418;2023-07-16T09:14:37;8.52;;;6.57;;
12114;SDS011;6121;49.810;6.418;2023-07-16T09:17:05;7.95;;;5.95;;
12114;SDS011;6121;49.810;6.418;2023-07-16T09:19:31;8.40;;;6.22;;
12114;SDS011;6121;49.810;6.418;2023-07-16T09:21:58;8.73;;;6.55;;
12114;SDS011;6121;49.810;6.418;2023-07-16T09:24:25;8.98;;;6.78;;
12114;SDS011;6121;49.810;6.418;2023-07-16T09:26:54;10.17;;;7.80;;
12114;SDS011;6121;49.810;6.418;2023-07-16T09:29:24;8.50;;;6.47;;
12114;SDS011;6121;49.810;6.418;2023-07-16T09:31:55;8.18;;;6.22;;
12114;SDS011;6121;49.810;6.418;2023-07-16T09:34:28;7.53;;;5.70;;
12114;SDS011;6121;49.810;6.418;2023-07-16T09:36:55;7.55;;;5.70;;
12114;SDS011;6121;49.810;6.418;2023-07-16T09:39:22;9.48;;;7.00;;
12114;SDS011;6121;49.810;6.418;2023-07-16T09:41:50;7.63;;;5.75;;
12114;SDS011;6121;49.810;6.418;2023-07-16T09:44:16;8.75;;;6.88;;
12114;SDS011;6121;49.810;6.418;2023-07-16T09:46:43;8.50;;;6.40;;
12114;SDS011;6121;49.810;6.418;2023-07-16T09:49:14;6.57;;;5.27;;
12114;SDS011;6121;49.810;6.418;2023-07-16T09:51:41;7.35;;;5.85;;
12114;SDS011;6121;49.810;6.418;2023-07-16T09:54:09;7.22;;;5.47;;
12114;SDS011;6121;49.810;6.418;2023-07-16T09:56:47;8.50;;;6.40;;
12114;SDS011;6121;49.810;6.418;2023-07-16T09:59:16;7.15;;;5.70;;
12114;SDS011;6121;49.810;6.418;2023-07-16T10:01:46;7.78;;;6.15;;
12114;SDS011;6121;49.810;6.418;2023-07-16T10:06:54;8.82;;;7.05;;
12114;SDS011;6121;49.810;6.418;2023-07-16T10:09:52;7.30;;;5.97;;
12114;SDS011;6121;49.810;6.418;2023-07-16T10:12:17;6.22;;;5.13;;
12114;SDS011;6121;49.810;6.418;2023-07-16T10:14:45;7.82;;;6.45;;
12114;SDS011;6121;49.810;6.418;2023-07-16T10:17:16;6.80;;;5.50;;
12114;SDS011;6121;49.810;6.418;2023-07-16T10:22:37;7.15;;;5.68;;
12114;SDS011;6121;49.810;6.418;2023-07-16T10:25:09;7.30;;;5.55;;
12114;SDS011;6121;49.810;6.418;2023-07-16T10:27:45;8.57;;;6.75;;
12114;SDS011;6121;49.810;6.418;2023-07-16T10:30:12;7.35;;;5.85;;
12114;SDS011;6121;49.810;6.418;2023-07-16T10:32:38;6.60;;;5.45;;
12114;SDS011;6121;49.810;6.418;2023-07-16T10:35:05;6.50;;;5.10;;
12114;SDS011;6121;49.810;6.418;2023-07-16T10:37:34;6.47;;;5.47;;
12114;SDS011;6121;49.810;6.418;2023-07-16T10:40:00;7.07;;;5.68;;
12114;SDS011;6121;49.810;6.418;2023-07-16T10:42:28;7.00;;;5.88;;
12114;SDS011;6121;49.810;6.418;2023-07-16T10:44:56;7.93;;;6.35;;
12114;SDS011;6121;49.810;6.418;2023-07-16T10:47:25;11.07;;;7.07;;
12114;SDS011;6121;49.810;6.418;2023-07-16T10:49:58;12.55;;;7.57;;
12114;SDS011;6121;49.810;6.418;2023-07-16T10:52:25;12.32;;;7.72;;
12114;SDS011;6121;49.810;6.418;2023-07-16T10:54:51;16.25;;;9.20;;
12114;SDS011;6121;49.810;6.418;2023-07-16T10:57:23;13.45;;;7.47;;
12114;SDS011;6121;49.810;6.418;2023-07-16T10:59:53;16.20;;;8.50;;
12114;SDS011;6121;49.810;6.418;2023-07-16T11:02:21;14.60;;;7.75;;
12114;SDS011;6121;49.810;6.418;2023-07-16T11:04:48;17.23;;;9.07;;
12114;SDS011;6121;49.810;6.418;2023-07-16T11:07:14;19.80;;;8.98;;
12114;SDS011;6121;49.810;6.418;2023-07-16T11:09:44;25.45;;;11.07;;
12114;SDS011;6121;49.810;6.418;2023-07-16T11:12:16;22.85;;;9.70;;
12114;SDS011;6121;49.810;6.418;2023-07-16T11:14:45;23.25;;;10.30;;
12114;SDS011;6121;49.810;6.418;2023-07-16T11:17:22;22.17;;;9.93;;
12114;SDS011;6121;49.810;6.418;2023-07-16T11:19:50;24.50;;;10.63;;
12114;SDS011;6121;49.810;6.418;2023-07-16T11:22:17;20.10;;;8.88;;
12114;SDS011;6121;49.810;6.418;2023-07-16T11:24:47;22.77;;;10.40;;
12114;SDS011;6121;49.810;6.418;2023-07-16T11:27:16;26.73;;;11.95;;
12114;SDS011;6121;49.810;6.418;2023-07-16T11:32:41;19.50;;;9.07;;
12114;SDS011;6121;49.810;6.418;2023-07-16T11:35:08;19.20;;;8.95;;
12114;SDS011;6121;49.810;6.418;2023-07-16T11:37:36;26.00;;;12.30;;
12114;SDS011;6121;49.810;6.418;2023-07-16T11:40:06;20.43;;;9.67;;
12114;SDS011;6121;49.810;6.418;2023-07-16T11:42:35;14.88;;;7.22;;
12114;SDS011;6121;49.810;6.418;2023-07-16T11:45:02;11.57;;;5.60;;
12114;SDS011;6121;49.810;6.418;2023-07-16T11:47:31;15.30;;;7.10;;
12114;SDS011;6121;49.810;6.418;2023-07-16T11:49:57;15.07;;;7.13;;
12114;SDS011;6121;49.810;6.418;2023-07-16T11:52:27;13.88;;;6.35;;
12114;SDS011;6121;49.810;6.418;2023-07-16T11:54:54;17.58;;;8.52;;
12114;SDS011;6121;49.810;6.418;2023-07-16T11:57:22;13.17;;;6.27;;
12114;SDS011;6121;49.810;6.418;2023-07-16T11:59:48;16.92;;;8.00;;
12114;SDS011;6121;49.810;6.418;2023-07-16T12:02:14;11.10;;;5.55;;
12114;SDS011;6121;49.810;6.418;2023-07-16T12:04:40;14.45;;;6.75;;
12114;SDS011;6121;49.810;6.418;2023-07-16T12:07:06;14.23;;;6.68;;
12114;SDS011;6121;49.810;6.418;2023-07-16T12:09:32;16.60;;;7.50;;
12114;SDS011;6121;49.810;6.418;2023-07-16T12:11:58;14.27;;;6.53;;
12114;SDS011;6121;49.810;6.418;2023-07-16T12:14:24;14.35;;;6.65;;
12114;SDS011;6121;49.810;6.418;2023-07-16T12:16:50;15.03;;;7.00;;
12114;SDS011;6121;49.810;6.418;2023-07-16T12:19:16;13.17;;;6.17;;
12114;SDS011;6121;49.810;6.418;2023-07-16T12:21:42;16.45;;;7.65;;
12114;SDS011;6121;49.810;6.418;2023-07-16T12:24:08;14.10;;;6.65;;
12114;SDS011;6121;49.810;6.418;2023-07-16T12:26:34;16.98;;;8.25;;
12114;SDS011;6121;49.810;6.418;2023-07-16T12:29:00;15.10;;;7.03;;
12114;SDS011;6121;49.810;6.418;2023-07-16T12:31:29;13.73;;;6.57;;
12114;SDS011;6121;49.810;6.418;2023-07-16T12:33:56;15.10;;;7.10;;
12114;SDS011;6121;49.810;6.418;2023-07-16T12:36:23;13.13;;;6.40;;
12114;SDS011;6121;49.810;6.418;2023-07-16T12:38:48;16.15;;;7.78;;
12114;SDS011;6121;49.810;6.418;2023-07-16T12:41:14;14.07;;;6.57;;
12114;SDS011;6121;49.810;6.418;2023-07-16T12:43:40;16.65;;;7.72;;
12114;SDS011;6121;49.810;6.418;2023-07-16T12:46:06;14.75;;;6.75;;
12114;SDS011;6121;49.810;6.418;2023-07-16T12:48:32;15.90;;;7.27;;
12114;SDS011;6121;49.810;6.418;2023-07-16T12:50:58;13.30;;;6.15;;
12114;SDS011;6121;49.810;6.418;2023-07-16T12:53:24;12.60;;;5.97;;
12114;SDS011;6121;49.810;6.418;2023-07-16T12:55:51;12.20;;;5.80;;
12114;SDS011;6121;49.810;6.418;2023-07-16T12:58:17;13.90;;;6.18;;
12114;SDS011;6121;49.810;6.418;2023-07-16T13:00:43;14.13;;;6.40;;
12114;SDS011;6121;49.810;6.418;2023-07-16T13:03:09;11.93;;;5.55;;
12114;SDS011;6121;49.810;6.418;2023-07-16T13:05:37;14.50;;;6.70;;
12114;SDS011;6121;49.810;6.418;2023-07-16T13:08:03;13.55;;;6.30;;
12114;SDS011;6121;49.810;6.418;2023-07-16T13:10:30;12.05;;;5.55;;
12114;SDS011;6121;49.810;6.418;2023-07-16T13:12:56;14.90;;;6.60;;
12114;SDS011;6121;49.810;6.418;2023-07-16T13:15:21;12.20;;;5.40;;
12114;SDS011;6121;49.810;6.418;2023-07-16T13:17:47;14.80;;;6.67;;
12114;SDS011;6121;49.810;6.418;2023-07-16T13:20:13;12.32;;;6.03;;
12114;SDS011;6121;49.810;6.418;2023-07-16T13:22:40;13.95;;;6.40;;
12114;SDS011;6121;49.810;6.418;2023-07-16T13:25:06;13.05;;;6.20;;
12114;SDS011;6121;49.810;6.418;2023-07-16T13:27:32;11.27;;;5.27;;
12114;SDS011;6121;49.810;6.418;2023-07-16T13:29:58;15.23;;;7.00;;
12114;SDS011;6121;49.810;6.418;2023-07-16T13:32:23;10.80;;;4.97;;
12114;SDS011;6121;49.810;6.418;2023-07-16T13:34:49;15.75;;;7.13;;
12114;SDS011;6121;49.810;6.418;2023-07-16T13:37:15;12.82;;;5.78;;
12114;SDS011;6121;49.810;6.418;2023-07-16T13:39:41;15.17;;;6.90;;
12114;SDS011;6121;49.810;6.418;2023-07-16T13:42:07;14.32;;;6.45;;
12114;SDS011;6121;49.810;6.418;2023-07-16T13:44:33;11.27;;;5.27;;
12114;SDS011;6121;49.810;6.418;2023-07-16T13:46:58;14.10;;;6.35;;
12114;SDS011;6121;49.810;6.418;2023-07-16T13:49:24;14.80;;;6.68;;
12114;SDS011;6121;49.810;6.418;2023-07-16T13:51:50;13.73;;;6.32;;
12114;SDS011;6121;49.810;6.418;2023-07-16T13:54:16;10.43;;;4.77;;
12114;SDS011;6121;49.810;6.418;2023-07-16T13:56:42;12.68;;;5.88;;
12114;SDS011;6121;49.810;6.418;2023-07-16T13:59:08;15.65;;;6.90;;
12114;SDS011;6121;49.810;6.418;2023-07-16T14:01:37;12.17;;;5.43;;
12114;SDS011;6121;49.810;6.418;2023-07-16T14:04:03;13.48;;;6.25;;
12114;SDS011;6121;49.810;6.418;2023-07-16T14:06:29;11.50;;;5.35;;
12114;SDS011;6121;49.810;6.418;2023-07-16T14:08:58;16.17;;;7.07;;
12114;SDS011;6121;49.810;6.418;2023-07-16T14:11:25;10.82;;;4.95;;
12114;SDS011;6121;49.810;6.418;2023-07-16T14:13:51;13.97;;;6.13;;
12114;SDS011;6121;49.810;6.418;2023-07-16T14:16:18;11.20;;;5.07;;
12114;SDS011;6121;49.810;6.418;2023-07-16T14:18:45;16.38;;;7.45;;
12114;SDS011;6121;49.810;6.418;2023-07-16T14:21:15;11.93;;;5.38;;
12114;SDS011;6121;49.810;6.418;2023-07-16T14:23:41;11.95;;;5.32;;
12114;SDS011;6121;49.810;6.418;2023-07-16T14:26:06;14.02;;;6.13;;
12114;SDS011;6121;49.810;6.418;2023-07-16T14:28:32;16.13;;;7.00;;
12114;SDS011;6121;49.810;6.418;2023-07-16T14:30:58;14.23;;;6.53;;
12114;SDS011;6121;49.810;6.418;2023-07-16T14:33:24;12.53;;;5.67;;
12114;SDS011;6121;49.810;6.418;2023-07-16T14:35:49;15.23;;;6.65;;
12114;SDS011;6121;49.810;6.418;2023-07-16T14:38:15;11.35;;;5.32;;
12114;SDS011;6121;49.810;6.418;2023-07-16T14:40:41;10.30;;;4.70;;
12114;SDS011;6121;49.810;6.418;2023-07-16T14:43:07;15.15;;;6.78;;
12114;SDS011;6121;49.810;6.418;2023-07-16T14:45:34;12.43;;;5.47;;
12114;SDS011;6121;49.810;6.418;2023-07-16T14:48:00;14.82;;;6.47;;
12114;SDS011;6121;49.810;6.418;2023-07-16T14:50:26;12.55;;;5.57;;
12114;SDS011;6121;49.810;6.418;2023-07-16T14:52:52;13.45;;;6.00;;
12114;SDS011;6121;49.810;6.418;2023-07-16T14:55:18;11.98;;;5.22;;
12114;SDS011;6121;49.810;6.418;2023-07-16T14:57:44;11.23;;;5.13;;
12114;SDS011;6121;49.810;6.418;2023-07-16T15:00:10;16.50;;;7.30;;
12114;SDS011;6121;49.810;6.418;2023-07-16T15:02:38;12.20;;;5.50;;
12114;SDS011;6121;49.810;6.418;2023-07-16T15:05:04;12.32;;;5.63;;